KLUF

Luke AFB Airport

Glendale, Arizona, USA
METAR KLUF 230758Z AUTO 00000KT 10SM CLR 22/01 A2981 RMK AO2 SLP083 T02210011 VISNO RWY21 $
Observed Flight Rules
May-23 @ 07:58 UTC (50 minutes ago) Visual Flight Rules
Visibility Clouds
10 miles
  • Clear skies
Temperatures Readings
Current 22°C / 72°F
Dewpoint 1°C / 34°F
Humidity 25%
Altimeter 29.81" Hg
Pressure 1008.3 hPa
Elevation 332
METAR KLUF 230758Z AUTO 00000KT 10SM CLR 22/01 A2981 RMK AO2 SLP083 T02210011 VISNO RWY21 $
Observed Flight Rules
May-23 @ 07:58 UTC
(50 minutes ago)
VFR
Clouds
  • Clear skies
Temperature Dewpoint
22°C / 72°F 1°C / 34°F
Humidity Altimeter Pressure
25% 29.81" Hg 1008.3 hPa